Flight Track Log - Related Links

Times and Time Zones

All times are in EDT time to prevent confusion due to time zone crossing. See the N717AN flight status page for this flight to view local times or setup timezone preferences in your user account.

Time Position Orientation Groundspeed Altitude Reporting Facility
EDT Latitude Longitude Course Direction KTS MPH feet Rate Location/Type
Fri 04:57:07 AM 51.4650 -0.5060 272° West 187 215 1,000  Level FlightAware ADS-B
Fri 04:57:33 AM 51.4660 -0.5443 272° West 188 216 2,200 2,462 Climbing FlightAware ADS-B
Fri 04:57:46 AM 51.4662 -0.5631 271° West 193 222 2,600 1,920 Climbing FlightAware ADS-B
Fri 04:57:58 AM 51.4664 -0.5806 271° West 195 224 3,000 2,182 Climbing FlightAware ADS-B
Fri 04:58:08 AM 51.4665 -0.5948 271° West 197 227 3,400 2,143 Climbing FlightAware ADS-B
Fri 04:58:12 AM 51.4664 -0.6008 268° West 200 230 3,500 1,200 Climbing FlightAware ADS-B
Fri 04:58:18 AM 51.4659 -0.6100 265° West 207 238 3,600 1,091 Climbing FlightAware ADS-B
Fri 04:58:23 AM 51.4653 -0.6165 262° West 212 244 3,700 750 Climbing FlightAware ADS-B
Fri 04:58:34 AM 51.4627 -0.6346 257° West 230 265 3,800 857 Climbing FlightAware ADS-B
Fri 04:58:44 AM 51.4591 -0.6526 252° West 245 282 4,000 1,579 Climbing FlightAware ADS-B
Fri 04:58:53 AM 51.4561 -0.6683 253° West 251 289 4,300 1,875 Climbing FlightAware ADS-B
Fri 04:59:00 AM 51.4547 -0.6797 259° West 252 290 4,500 2,000 Climbing FlightAware ADS-B
Fri 04:59:08 AM 51.4542 -0.6954 267° West 253 291 4,800 2,143 Climbing FlightAware ADS-B
Fri 04:59:14 AM 51.4542 -0.7065 270° West 255 293 5,000 2,400 Climbing FlightAware ADS-B
Fri 04:59:18 AM 51.4548 -0.7153 276° West 255 293 5,200 3,000 Climbing FlightAware ADS-B
Fri 04:59:24 AM 51.4561 -0.7249 282° West 254 292 5,500 2,727 Climbing FlightAware ADS-B
Fri 04:59:29 AM 51.4579 -0.7337 288° West 253 291 5,700 2,526 Climbing FlightAware ADS-B
Fri 04:59:43 AM 51.4635 -0.7587 290° West 254 292 6,300 2,769 Climbing FlightAware ADS-B
Fri 04:59:55 AM 51.4682 -0.7797 290° West 256 295 6,900 2,667 Climbing FlightAware ADS-B
Fri 05:00:10 AM 51.4747 -0.8076 291° West 258 297 7,500 2,800 Climbing FlightAware ADS-B
Fri 05:00:25 AM 51.4806 -0.8331 290° West 256 295 8,300 2,786 Climbing FlightAware ADS-B
Fri 05:00:38 AM 51.4864 -0.8565 292° West 257 296 8,800 2,000 Climbing FlightAware ADS-B
Fri 05:00:49 AM 51.4912 -0.8761 291° West 265 305 9,100 2,211 Climbing FlightAware ADS-B
Fri 05:00:57 AM 51.4952 -0.8912 293° West 268 308 9,500 2,333 Climbing FlightAware ADS-B
Fri 05:01:07 AM 51.4997 -0.9084 293° West 268 308 9,800 2,100 Climbing FlightAware ADS-B
Fri 05:01:37 AM 51.5162 -0.9658 295° West 284 327 10,900 1,672 Climbing FlightAware ADS-B
Fri 05:02:08 AM 51.5347 -1.0263 296° West 318 366 11,500 -436 Climbing FlightAware ADS-B
Fri 05:02:32 AM 51.5518 -1.0806 296° West 364 419 10,500 1,355 Descending FlightAware UK
Fri 05:02:39 AM 51.5562 -1.0944 296° West 345 397 12,200 5,739 Climbing FlightAware ADS-B
Fri 05:02:55 AM 51.5684 -1.1334 297° West 359 413 12,700 1,826 Climbing FlightAware ADS-B
Fri 05:03:02 AM 51.5730 -1.1507 293° West 358 412 12,900 2,842 Climbing FlightAware ADS-B
Fri 05:03:33 AM 51.5885 -1.2273 288° West 357 411 14,500 1,967 Climbing FlightAware ADS-B
Fri 05:04:03 AM 51.6026 -1.2960 288° West 360 414 14,900 -1,132 Climbing FlightAware ADS-B
Fri 05:04:26 AM 51.6167 -1.3627 288° West 392 451 13,500 194 Descending FlightAware UK
Fri 05:04:34 AM 51.6212 -1.3828 288° West 357 411 15,000  Climbing FlightAware ADS-B
Fri 05:04:50 AM 51.6298 -1.4227 288° West 392 451 13,500  Descending FlightAware UK
Fri 05:05:03 AM 51.6370 -1.4550 288° West 357 411 15,000 2,045 Climbing FlightAware ADS-B
Fri 05:05:34 AM 51.6538 -1.5315 290° West 358 412 15,000 -1,915 Level FlightAware ADS-B
Fri 05:05:50 AM 51.6626 -1.5722 290° West 392 451 13,500  Descending FlightAware UK
Fri 05:06:05 AM 51.6706 -1.6103 290° West 362 417 15,000 2,533 Climbing FlightAware ADS-B
Fri 05:06:35 AM 51.6869 -1.6881 289° West 366 421 15,400 -533 Climbing FlightAware ADS-B
Fri 05:06:50 AM 51.6950 -1.7259 289° West 398 458 14,600 2,710 Descending FlightAware UK
Fri 05:07:06 AM 51.7042 -1.7664 289° West 371 427 16,800 4,596 Climbing FlightAware ADS-B
Fri 05:07:37 AM 51.7232 -1.8486 290° West 377 434 18,200 2,550 Climbing FlightAware ADS-B
Fri 05:07:46 AM 51.7286 -1.8721 290° West 377 434 18,500 -1,680 Climbing FlightAware ADS-B
Fri 05:08:02 AM 51.7373 -1.9138 290° West 416 479 17,500 2,323 Descending FlightAware UK
Fri 05:08:17 AM 51.7450 -1.9549 290° West 381 438 19,700 2,200 Climbing FlightAware ADS-B
Fri 05:08:32 AM 51.7527 -1.9951 290° West 420 483 18,600 1,833 Descending FlightAware UK
Fri 05:08:53 AM 51.7606 -2.0531 290° West 384 442 20,800 2,000 Climbing FlightAware ADS-B
Fri 05:09:08 AM 51.7660 -2.0954 290° West 434 499 19,800 2,400 Descending FlightAware UK
Fri 05:09:23 AM 51.7713 -2.1384 290° West 387 445 22,000 2,000 Climbing FlightAware ADS-B
Fri 05:09:56 AM 51.7834 -2.2315 290° West 438 504 21,400 1,592 Descending FlightAware UK
Fri 05:10:12 AM 51.7900 -2.2730 290° West 403 464 23,300 2,043 Climbing FlightAware ADS-B
Fri 05:10:43 AM 51.8043 -2.3715 290° West 454 522 23,000 2,000 Descending FlightAware UK
Fri 05:10:57 AM 51.8100 -2.4070 290° West 409 471 24,800 1,600 Climbing FlightAware ADS-B
Fri 05:11:13 AM 51.8178 -2.4604 290° West 458 527 23,800 -882 Descending FlightAware UK
Fri 05:11:31 AM 51.8264 -2.5145 284° West 464 534 24,300 5,250 Climbing FlightAware UK
Fri 05:11:37 AM 51.8280 -2.5240 284° West 417 480 25,900 4,759 Climbing FlightAware ADS-B
Fri 05:12:00 AM 51.8404 -2.6016 285° West 419 482 26,600 -375 Climbing FlightAware ADS-B
Fri 05:12:25 AM 51.8513 -2.6783 285° West 472 543 25,600 -698 Descending FlightAware UK
Fri 05:12:43 AM 51.8571 -2.7339 280° West 476 548 26,100 5,727 Climbing FlightAware UK
Fri 05:12:47 AM 51.8580 -2.7400 280° West 423 487 27,700 1,000 Climbing FlightAware ADS-B
Fri 05:13:07 AM 51.8651 -2.8088 280° West 480 552 26,500 1,050 Descending FlightAware UK
Fri 05:13:27 AM 51.8710 -2.8610 280° West 434 499 28,400 4,125 Climbing FlightAware ADS-B
Fri 05:13:39 AM 51.8767 -2.9114 280° West 422 486 28,700 -1,929 Climbing FlightAware ADS-B
Fri 05:13:55 AM 51.8826 -2.9630 280° West 486 559 27,500 1,161 Descending FlightAware UK
Fri 05:14:10 AM 51.8883 -3.0104 280° West 447 514 29,300 3,333 Climbing FlightAware ADS-B
Fri 05:14:40 AM 51.9002 -3.1103 281° West 448 516 30,000 -941 Climbing FlightAware ADS-B
Fri 05:15:01 AM 51.9082 -3.1790 281° West 484 557 28,500  Descending FlightAware UK
Fri 05:15:17 AM 51.9142 -3.2308 281° West 441 507 30,000  Climbing FlightAware ADS-B
Fri 05:15:37 AM 51.9217 -3.2957 281° West 486 559 28,500 581 Descending FlightAware UK
Fri 05:15:48 AM 51.9258 -3.3314 281° West 445 512 30,300 1,600 Climbing FlightAware ADS-B
Fri 05:16:07 AM 51.9328 -3.3929 281° West 490 564 29,300 -140 Descending FlightAware UK
Fri 05:16:31 AM 51.9418 -3.4715 281° West 486 559 30,200 1,500 Climbing FlightAware UK
Fri 05:16:55 AM 51.9500 -3.5471 280° West 486 559 30,500 3,484 Climbing FlightAware UK
Fri 05:17:02 AM 51.9520 -3.5610 280° West 438 504 32,000  Climbing FlightAware ADS-B
Fri 05:17:19 AM 51.9590 -3.6249 280° West 492 566 30,500  Descending FlightAware UK
Fri 05:17:42 AM 51.9680 -3.6940 280° West 438 504 32,000  Climbing FlightAware ADS-B
Fri 05:18:01 AM 51.9771 -3.7599 280° West 488 562 30,500  Descending FlightAware UK
Fri 05:18:22 AM 51.9820 -3.8210 280° West 429 494 32,000  Climbing FlightAware ADS-B
Fri 05:18:43 AM 51.9846 -3.8942 280° West 490 564 30,500 -2,462 Descending FlightAware UK
Fri 05:19:01 AM 51.9867 -3.9522 273° West 490 564 30,400 3,750 Descending FlightAware UK
Fri 05:19:07 AM 51.9870 -3.9640 273° West 434 499 32,000 6,000 Climbing FlightAware ADS-B
Fri 05:19:17 AM 51.9890 -4.0064 274° West 437 503 32,000  Level FlightAware ADS-B
Fri 05:19:48 AM 51.9938 -4.1062 275° West 442 509 32,000 -1,800 Level FlightAware ADS-B
Fri 05:20:07 AM 51.9970 -4.1691 275° West 496 571 30,500  Descending FlightAware UK
Fri 05:20:32 AM 52.0010 -4.2440 275° West 445 512 32,000  Climbing FlightAware ADS-B
Fri 05:20:49 AM 52.0047 -4.3088 275° West 496 571 30,500  Descending FlightAware UK
Fri 05:21:02 AM 52.0070 -4.3523 275° West 448 516 32,000  Climbing FlightAware ADS-B
Fri 05:21:24 AM 52.0111 -4.4282 275° West 498 573 30,500  Descending FlightAware UK
Fri 05:21:52 AM 52.0150 -4.5130 275° West 449 517 32,000  Climbing FlightAware ADS-B
Fri 05:22:12 AM 52.0193 -4.5889 275° West 498 573 30,500 -2,368 Descending FlightAware UK
Fri 05:22:30 AM 52.0223 -4.6492 275° West 496 571 30,500 3,600 Level FlightAware UK
Fri 05:22:37 AM 52.0230 -4.6670 275° West 449 517 32,000  Climbing FlightAware ADS-B
Fri 05:22:54 AM 52.0261 -4.7296 275° West 494 568 30,500 -2,571 Descending FlightAware UK
Fri 05:23:12 AM 52.0289 -4.7901 274° West 496 571 30,500 3,913 Level FlightAware UK
Fri 05:23:17 AM 52.0290 -4.7950 274° West 451 519 32,000  Climbing FlightAware ADS-B
Fri 05:23:36 AM 52.0327 -4.8710 274° West 496 571 30,500 -2,432 Descending FlightAware UK
Fri 05:23:54 AM 52.0349 -4.9320 273° West 494 568 30,500 3,462 Level FlightAware UK
Fri 05:24:02 AM 52.0350 -4.9490 273° West 452 520 32,000  Climbing FlightAware ADS-B
Fri 05:24:18 AM 52.0378 -5.0135 273° West 498 573 30,500  Descending FlightAware UK
Fri 05:24:42 AM 52.0400 -5.0830 273° West 455 524 32,000  Climbing FlightAware ADS-B
Fri 05:25:00 AM 52.0431 -5.1566 273° West 496 571 30,500 -2,500 Descending FlightAware UK
Fri 05:25:18 AM 52.0454 -5.2180 273° West 498 573 30,500 4,091 Level FlightAware UK
Fri 05:25:22 AM 52.0460 -5.2230 273° West 456 525 32,000  Climbing FlightAware ADS-B
Fri 05:25:42 AM 52.0484 -5.2999 273° West 496 571 30,500  Descending FlightAware UK
Fri 05:26:07 AM 52.0510 -5.3800 273° West 457 526 32,000  Climbing FlightAware ADS-B
Fri 05:26:30 AM 52.0543 -5.4633 273° West 498 573 30,500  Descending FlightAware UK
Fri 05:26:47 AM 52.0560 -5.5100 273° West 457 526 32,000 -167 Climbing FlightAware ADS-B
Fri 05:27:06 AM 52.0585 -5.5867 273° West 500 575 30,400 -2,595 Descending FlightAware UK
Fri 05:27:24 AM 52.0607 -5.6485 273° West 498 573 30,400 4,571 Level FlightAware UK
Fri 05:27:27 AM 52.0610 -5.6490 273° West 458 527 32,000 333 Climbing FlightAware ADS-B
Fri 05:27:42 AM 52.0627 -5.7104 273° West 498 573 30,500 -2,909 Descending FlightAware UK
Fri 05:28:00 AM 52.0647 -5.7723 273° West 496 571 30,400 3,000 Descending FlightAware UK
Fri 05:28:12 AM 52.0660 -5.8020 273° West 459 528 32,000 200 Climbing FlightAware ADS-B
Fri 05:28:30 AM 52.0680 -5.8756 273° West 498 573 30,500 -2,667 Descending FlightAware UK
Fri 05:28:48 AM 52.0700 -5.9376 273° West 498 573 30,400 4,091 Descending FlightAware UK
Fri 05:28:52 AM 52.0700 -5.9420 273° West 460 529 32,000  Climbing FlightAware ADS-B
Fri 05:29:12 AM 52.0726 -6.0196 273° West 500 575 30,400 -2,526 Descending FlightAware UK
Fri 05:29:30 AM 52.0744 -6.0816 273° West 500 575 30,400 3,840 Level FlightAware UK
Fri 05:29:37 AM 52.0750 -6.0900 273° West 458 527 32,000  Climbing FlightAware ADS-B
Fri 05:29:54 AM 52.0768 -6.1641 273° West 496 571 30,400 -2,571 Descending FlightAware UK
Fri 05:30:12 AM 52.0785 -6.2259 273° West 496 571 30,500 4,174 Climbing FlightAware UK
Fri 05:30:17 AM 52.0780 -6.2280 273° West 460 529 32,000 -250 Climbing FlightAware ADS-B
Fri 05:30:36 AM 52.0807 -6.3085 273° West 496 571 30,400 -2,432 Descending FlightAware UK
Fri 05:30:54 AM 52.0824 -6.3706 273° West 498 573 30,500 4,571 Climbing FlightAware UK
Fri 05:30:57 AM 52.0830 -6.3740 273° West 462 532 32,000  Climbing FlightAware ADS-B
Fri 05:31:12 AM 52.0840 -6.4328 273° West 498 573 30,500 -2,727 Descending FlightAware UK
Fri 05:31:30 AM 52.0859 -6.4950 273° West 498 573 30,500 3,000 Level FlightAware UK
Fri 05:31:42 AM 52.0870 -6.5260 273° West 461 531 32,000  Climbing FlightAware ADS-B
Fri 05:32:00 AM 52.0886 -6.5988 273° West 500 575 30,500 -2,500 Descending FlightAware UK
Fri 05:32:18 AM 52.0902 -6.6609 272° West 500 575 30,500 3,333 Level FlightAware UK
Fri 05:32:27 AM 52.0910 -6.6820 272° West 456 525 32,000  Climbing FlightAware ADS-B
Fri 05:32:42 AM 52.0924 -6.7433 272° West 494 568 30,500 -2,727 Descending FlightAware UK
Fri 05:33:00 AM 52.0941 -6.8047 273° West 496 571 30,500 3,600 Level FlightAware UK
Fri 05:33:07 AM 52.0940 -6.8230 273° West 456 525 32,000  Climbing FlightAware ADS-B
Fri 05:33:24 AM 52.0956 -6.8862 273° West 492 566 30,500 -2,571 Descending FlightAware UK
Fri 05:33:42 AM 52.0968 -6.9475 272° West 494 568 30,500 3,913 Level FlightAware UK
Fri 05:33:47 AM 52.0970 -6.9540 272° West 458 527 32,000 1,000 Climbing FlightAware ADS-B
Fri 05:34:06 AM 52.0985 -7.0298 272° West 494 568 30,900 -1,135 Descending FlightAware UK
Fri 05:34:24 AM 52.0998 -7.0919 272° West 492 566 31,300 4,615 Climbing FlightAware UK
Fri 05:34:32 AM 52.1000 -7.1090 272° West 460 529 32,900 250 Climbing FlightAware ADS-B
Fri 05:34:48 AM 52.1012 -7.1741 272° West 490 564 31,400 -2,471 Descending FlightAware UK
Fri 05:35:06 AM 52.1027 -7.2360 272° West 490 564 31,500 4,000 Climbing FlightAware UK
Fri 05:35:12 AM 52.1030 -7.2510 272° West 456 525 33,000  Climbing FlightAware ADS-B
Fri 05:35:30 AM 52.1044 -7.3181 272° West 488 562 31,500 -2,500 Descending FlightAware UK
Fri 05:35:48 AM 52.1055 -7.3799 272° West 488 562 31,500 4,091 Level FlightAware UK
Fri 05:35:52 AM 52.1060 -7.3860 272° West 463 533 33,000  Climbing FlightAware ADS-B
Fri 05:36:12 AM 52.1067 -7.4629 272° West 494 568 31,500 -2,368 Descending FlightAware UK
Fri 05:36:30 AM 52.1078 -7.5263 272° West 494 568 31,500 3,600 Level FlightAware UK
Fri 05:36:37 AM 52.1080 -7.5470 272° West 469 540 33,000  Climbing FlightAware ADS-B
Fri 05:36:54 AM 52.1097 -7.6112 272° West 498 573 31,500 -2,571 Descending FlightAware UK
Fri 05:37:12 AM 52.1106 -7.6748 271° West 498 573 31,500 3,913 Level FlightAware UK
Fri 05:37:17 AM 52.1110 -7.6810 271° West 468 539 33,000  Climbing FlightAware ADS-B
Fri 05:37:36 AM 52.1119 -7.7590 271° West 496 571 31,500 -2,432 Descending FlightAware UK
Fri 05:37:54 AM 52.1129 -7.8220 272° West 492 566 31,500 3,462 Level FlightAware UK
Fri 05:38:02 AM 52.1130 -7.8400 272° West 468 539 33,000  Climbing FlightAware ADS-B
Fri 05:38:18 AM 52.1141 -7.9061 272° West 492 566 31,500 -2,647 Descending FlightAware UK
Fri 05:38:36 AM 52.1149 -7.9693 271° West 500 575 31,500 3,750 Level FlightAware UK
Fri 05:38:42 AM 52.1150 -7.9750 271° West 471 542 33,000  Climbing FlightAware ADS-B
Fri 05:39:00 AM 52.1160 -8.0540 271° West 500 575 31,500  Descending FlightAware UK
Fri 05:39:17 AM 52.1170 -8.1040 271° West 469 540 33,000  Climbing FlightAware ADS-B
Fri 05:39:18 AM 52.1169 -8.1176 271° West 500 575 31,500 -3,600 Descending FlightAware UK
Fri 05:39:42 AM 52.1180 -8.2021 271° West 498 573 31,500  Level FlightAware UK
Fri 05:40:00 AM 52.1188 -8.2652 271° West 498 573 31,500 4,500 Level FlightAware UK
Fri 05:40:02 AM 52.1180 -8.2560 271° West 466 536 33,000 -333 Climbing FlightAware ADS-B
Fri 05:40:18 AM 52.1195 -8.3283 271° West 498 573 31,400 -2,824 Descending FlightAware UK
Fri 05:40:36 AM 52.1202 -8.3905 271° West 498 573 31,400 3,310 Level FlightAware UK
Fri 05:40:47 AM 52.1200 -8.4180 271° West 463 533 33,000  Climbing FlightAware ADS-B
Fri 05:41:06 AM 52.1212 -8.4947 271° West 494 568 31,400  Descending FlightAware UK
Fri 05:41:22 AM 52.1210 -8.5180 271° West 465 535 33,000  Climbing FlightAware ADS-B
Fri 05:41:24 AM 52.1218 -8.5571 271° West 494 568 31,400 -4,800 Descending FlightAware UK
Fri 05:41:42 AM 52.1222 -8.6197 271° West 494 568 31,400  Level FlightAware UK
Fri 05:42:00 AM 52.1226 -8.6822 271° West 498 573 31,400 3,200 Level FlightAware UK
Fri 05:42:12 AM 52.1230 -8.7150 271° West 466 536 33,000  Climbing FlightAware ADS-B
Fri 05:42:30 AM 52.1233 -8.7869 271° West 492 566 31,400 -2,500 Descending FlightAware UK
Fri 05:42:48 AM 52.1236 -8.8497 271° West 490 564 31,500 3,556 Climbing FlightAware UK
Fri 05:42:57 AM 52.1240 -8.8720 271° West 467 537 33,000  Climbing FlightAware ADS-B
Fri 05:43:12 AM 52.1239 -8.9338 271° West 498 573 31,500 -2,909 Descending FlightAware UK
Fri 05:43:30 AM 52.1242 -8.9968 270° West 494 568 31,400 4,500 Descending FlightAware UK
Fri 05:43:32 AM 52.1240 -8.9900 270° West 465 535 33,000 2,286 Climbing FlightAware ADS-B
Fri 05:44:12 AM 52.1250 -9.1330 271° West 467 537 33,000  Level FlightAware ADS-B
Fri 05:44:42 AM 52.1250 -9.2330 270° West 468 539 33,000  Level FlightAware ADS-B
Fri 05:45:27 AM 52.1260 -9.3850 271° West 469 540 33,000  Level FlightAware ADS-B
Fri 05:46:12 AM 52.1260 -9.5450 270° West 470 541 33,000  Level FlightAware ADS-B
Fri 05:46:47 AM 52.1260 -9.6560 270° West 472 543 33,000  Level FlightAware ADS-B
Fri 05:47:37 AM 52.1250 -9.8500 270° West 33,000  Level FlightAware ADS-B
Fri 05:48:07 AM 52.1250 -9.9620 270° West 468 539 33,000  Level FlightAware ADS-B
Fri 05:49:12 AM 52.1240 -10.1660 270° West 467 537 33,000  Level FlightAware ADS-B
Fri 05:49:52 AM 52.1230 -10.3110 269° West 465 535 33,000  Level FlightAware ADS-B
Fri 05:50:37 AM 52.1220 -10.4780 270° West 468 539 33,000  Level FlightAware ADS-B
Fri 05:51:12 AM 52.1210 -10.5940 269° West 470 541 33,000  Level FlightAware ADS-B
Fri 05:51:57 AM 52.1200 -10.7590 269° West 472 543 33,000  Level FlightAware ADS-B
Fri 05:52:42 AM 52.1180 -10.9140 269° West 471 542 33,000  Level FlightAware ADS-B
Fri 05:53:17 AM 52.1160 -11.0390 269° West 470 541 33,000  Level FlightAware ADS-B
Fri 05:54:07 AM 52.1140 -11.2190 269° West 471 542 33,000  Level FlightAware ADS-B
Fri 05:54:47 AM 52.1120 -11.3560 269° West 472 543 33,000  Level FlightAware ADS-B
Fri 05:55:37 AM 52.1090 -11.5320 268° West 473 544 33,000  Level FlightAware ADS-B
Fri 05:56:27 AM 52.1060 -11.7030 268° West 475 547 33,000  Level FlightAware ADS-B
Fri 05:57:22 AM 52.1030 -11.9060 269° West 476 548 33,000  Level FlightAware ADS-B
Fri 05:58:02 AM 52.1010 -12.0330 269° West 476 548 33,000  Level FlightAware ADS-B
Fri 05:58:42 AM 52.0970 -12.1830 268° West 476 548 33,000  Level FlightAware ADS-B
Fri 05:59:37 AM 52.0930 -12.3760 268° West 476 548 33,000  Level FlightAware ADS-B
Fri 06:00:22 AM 52.0880 -12.5410 267° West 33,000  Level FlightAware ADS-B
Fri 06:02:00 AM 52.1477 -12.8441 288° West  Level Estimated
Fri 06:03:00 AM 52.1839 -13.0300 288° West  Level Estimated
Fri 06:04:00 AM 52.2198 -13.2163 288° West  Level Estimated
Fri 06:05:00 AM 52.2554 -13.4029 287° West  Level Estimated
Fri 06:06:00 AM 52.2907 -13.5897 287° West  Level Estimated
Fri 06:07:00 AM 52.3257 -13.7769 287° West  Level Estimated
Fri 06:08:00 AM 52.3605 -13.9643 287° West  Level Estimated
Fri 06:09:00 AM 52.3949 -14.1521 287° West  Level Estimated
Fri 06:10:00 AM 52.4290 -14.3401 287° West  Level Estimated
Fri 06:11:00 AM 52.4628 -14.5285 286° West  Level Estimated
Fri 06:12:00 AM 52.4963 -14.7171 286° West  Level Estimated
Fri 06:13:00 AM 52.5296 -14.9063 286° West  Level Estimated
Fri 06:14:00 AM 52.5626 -15.0958 286° West  Level Estimated
Fri 06:15:00 AM 52.5953 -15.2856 286° West  Level Estimated
Fri 06:16:00 AM 52.6277 -15.4757 286° West  Level Estimated
Fri 06:17:00 AM 52.6597 -15.6661 286° West  Level Estimated
Fri 06:18:00 AM 52.6915 -15.8567 285° West  Level Estimated
Fri 06:19:00 AM 52.7229 -16.0476 285° West  Level Estimated
Fri 06:20:00 AM 52.7541 -16.2388 285° West  Level Estimated
Fri 06:21:00 AM 52.7849 -16.4303 285° West  Level Estimated
Fri 06:22:00 AM 52.8155 -16.6220 285° West  Level Estimated
Fri 06:23:00 AM 52.8457 -16.8140 285° West  Level Estimated
Fri 06:24:00 AM 52.8756 -17.0063 285° West  Level Estimated
Fri 06:25:00 AM 52.9052 -17.1988 284° West  Level Estimated
Fri 06:26:00 AM 52.9345 -17.3916 284° West  Level Estimated
Fri 06:27:00 AM 52.9635 -17.5846 284° West  Level Estimated
Fri 06:28:00 AM 52.9921 -17.7780 284° West  Level Estimated
Fri 06:29:00 AM 53.0205 -17.9715 284° West  Level Estimated
Fri 06:30:00 AM 53.0485 -18.1653 284° West  Level Estimated
Fri 06:31:00 AM 53.0762 -18.3594 283° West  Level Estimated
Fri 06:32:00 AM 53.1036 -18.5537 283° West  Level Estimated
Fri 06:33:00 AM 53.1307 -18.7483 283° West  Level Estimated
Fri 06:34:00 AM 53.1575 -18.9431 283° West  Level Estimated
Fri 06:35:00 AM 53.1839 -19.1381 283° West  Level Estimated
Fri 06:35:00 AM 52.0000 -20.0000 265° West 482 555 33,000  Level ETMS Enhanced Traffic Management System
Fri 06:36:00 AM 53.2101 -19.3334 283° West  Level Estimated
Fri 06:37:00 AM 53.2359 -19.5290 283° West  Level Estimated
Fri 06:38:00 AM 53.2614 -19.7247 282° West  Level Estimated
Fri 06:39:00 AM 53.2865 -19.9207 282° West  Level Estimated
Fri 06:40:00 AM 53.3114 -20.1169 282° West  Level Estimated
Fri 06:41:00 AM 51.9202 -21.2987 264° West 482 555 33,000  Level FlightAware Transoceanic
Fri 06:42:00 AM 51.9055 -21.5147 264° West 482 555 33,000  Level FlightAware Transoceanic
Fri 06:43:00 AM 51.8904 -21.7305 263° West 482 555 33,000  Level FlightAware Transoceanic
Fri 06:44:00 AM 51.8749 -21.9462 263° West 482 555 33,000  Level FlightAware Transoceanic
Fri 06:45:00 AM 51.8590 -22.1617 263° West 482 555 33,000  Level FlightAware Transoceanic
Fri 06:46:00 AM 51.8427 -22.3771 263° West 482 555 33,000  Level FlightAware Transoceanic
Fri 06:47:00 AM 51.8261 -22.5923 263° West 482 555 33,000  Level FlightAware Transoceanic
Fri 06:48:00 AM 51.8090 -22.8074 263° West 482 555 33,000  Level FlightAware Transoceanic
Fri 06:49:00 AM 51.7916 -23.0223 262° West 482 555 33,000  Level FlightAware Transoceanic
Fri 06:50:00 AM 51.7737 -23.2370 262° West 482 555 33,000  Level FlightAware Transoceanic
Fri 06:51:00 AM 51.7555 -23.4516 262° West 482 555 33,000  Level FlightAware Transoceanic
Fri 06:52:00 AM 51.7369 -23.6660 262° West 482 555 33,000  Level FlightAware Transoceanic
Fri 06:53:00 AM 51.7179 -23.8802 262° West 482 555 33,000  Level FlightAware Transoceanic
Fri 06:54:00 AM 51.6985 -24.0942 262° West 482 555 33,000  Level FlightAware Transoceanic
Fri 06:55:00 AM 51.6787 -24.3081 261° West 482 555 33,000  Level FlightAware Transoceanic
Fri 06:55:00 AM 51.6833 -24.2833 261° West 484 557 33,000  Level ETMS Enhanced Traffic Management System
Fri 06:55:39 AM 51.6833 -24.2833 261° West 484 557 33,000  Level ETMS Enhanced Traffic Management System
Fri 06:56:00 AM 51.6585 -24.5217 261° West 482 555 33,000  Level FlightAware Transoceanic
Fri 06:57:00 AM 51.6379 -24.7352 261° West 482 555 33,000  Level FlightAware Transoceanic
Fri 06:58:00 AM 51.6170 -24.9484 261° West 482 555 33,000  Level FlightAware Transoceanic
Fri 06:59:00 AM 51.5956 -25.1615 261° West 482 555 33,000  Level FlightAware Transoceanic
Fri 07:00:00 AM 51.5739 -25.3744 261° West 482 555 33,000  Level FlightAware Transoceanic
Fri 07:01:00 AM 51.5556 -25.5680 260° West 484 557 33,000  Level FlightAware Transoceanic
Fri 07:02:00 AM 51.5330 -25.7813 260° West 484 557 33,000  Level FlightAware Transoceanic
Fri 07:03:00 AM 51.5100 -25.9945 260° West 484 557 33,000  Level FlightAware Transoceanic
Fri 07:04:00 AM 51.4866 -26.2075 260° West 484 557 33,000  Level FlightAware Transoceanic
Fri 07:05:00 AM 51.4628 -26.4202 260° West 484 557 33,000  Level FlightAware Transoceanic
Fri 07:06:00 AM 51.4386 -26.6327 260° West 484 557 33,000  Level FlightAware Transoceanic
Fri 07:07:00 AM 51.4140 -26.8450 259° West 484 557 33,000  Level FlightAware Transoceanic
Fri 07:08:00 AM 51.3891 -27.0571 259° West 484 557 33,000  Level FlightAware Transoceanic
Fri 07:09:00 AM 51.3637 -27.2689 259° West 484 557 33,000  Level FlightAware Transoceanic
Fri 07:10:00 AM 51.3380 -27.4805 259° West 484 557 33,000  Level FlightAware Transoceanic
Fri 07:11:00 AM 51.3119 -27.6918 259° West 484 557 33,000  Level FlightAware Transoceanic
Fri 07:12:00 AM 51.2855 -27.9029 259° West 484 557 33,000  Level FlightAware Transoceanic
Fri 07:13:00 AM 51.2586 -28.1138 258° West 484 557 33,000  Level FlightAware Transoceanic
Fri 07:14:00 AM 51.2314 -28.3244 258° West 484 557 33,000  Level FlightAware Transoceanic
Fri 07:15:00 AM 51.2038 -28.5347 258° West 484 557 33,000  Level FlightAware Transoceanic
Fri 07:16:00 AM 51.1758 -28.7449 258° West 484 557 33,000  Level FlightAware Transoceanic
Fri 07:17:00 AM 51.1474 -28.9547 258° West 484 557 33,000  Level FlightAware Transoceanic
Fri 07:18:00 AM 51.1187 -29.1643 258° West 484 557 33,000  Level FlightAware Transoceanic
Fri 07:19:00 AM 51.0896 -29.3736 257° West 484 557 33,000  Level FlightAware Transoceanic
Fri 07:20:00 AM 51.0601 -29.5827 257° West 484 557 33,000  Level FlightAware Transoceanic
Fri 07:21:00 AM 51.0302 -29.7915 257° West 484 557 33,000 10 Level FlightAware Transoceanic
Fri 07:22:00 AM 51.0443 -29.9885 277° West  Level Estimated
Fri 07:23:00 AM 51.0581 -30.1857 276° West  Level Estimated
Fri 07:24:00 AM 51.0715 -30.3830 276° West  Level Estimated
Fri 07:25:00 AM 51.0846 -30.5805 276° West  Level Estimated
Fri 07:26:00 AM 51.0974 -30.7780 276° West  Level Estimated
Fri 07:27:00 AM 51.1098 -30.9756 276° West  Level Estimated
Fri 07:28:00 AM 51.1219 -31.1734 276° West  Level Estimated
Fri 07:29:00 AM 51.1337 -31.3712 275° West  Level Estimated
Fri 07:30:00 AM 51.1451 -31.5691 275° West  Level Estimated
Fri 07:31:00 AM 51.1562 -31.7672 275° West  Level Estimated
Fri 07:32:00 AM 51.1669 -31.9653 275° West  Level Estimated
Fri 07:33:00 AM 51.1773 -32.1635 275° West  Level Estimated
Fri 07:34:00 AM 51.1874 -32.3618 275° West  Level Estimated
Fri 07:35:00 AM 51.1972 -32.5602 275° West  Level Estimated
Fri 07:36:00 AM 51.2066 -32.7587 274° West  Level Estimated
Fri 07:37:00 AM 51.2157 -32.9573 274° West  Level Estimated
Fri 07:38:00 AM 51.2244 -33.1559 274° West  Level Estimated
Fri 07:39:00 AM 51.2328 -33.3546 274° West  Level Estimated
Fri 07:40:00 AM 51.2409 -33.5534 274° West  Level Estimated
Fri 07:41:00 AM 51.2487 -33.7523 274° West  Level Estimated
Fri 07:42:00 AM 51.2561 -33.9512 273° West  Level Estimated
Fri 07:43:00 AM 51.2631 -34.1502 273° West  Level Estimated
Fri 07:44:00 AM 51.2699 -34.3492 273° West  Level Estimated
Fri 07:45:00 AM 51.2762 -34.5483 273° West  Level Estimated
Fri 07:46:00 AM 51.2823 -34.7474 273° West  Level Estimated
Fri 07:47:00 AM 51.2880 -34.9466 273° West  Level Estimated
Fri 07:48:00 AM 51.2934 -35.1459 273° West  Level Estimated
Fri 07:49:00 AM 51.2984 -35.3452 272° West  Level Estimated
Fri 07:50:00 AM 51.3031 -35.5445 272° West  Level Estimated
Fri 07:51:00 AM 51.3075 -35.7439 272° West  Level Estimated
Fri 07:52:00 AM 51.3115 -35.9433 272° West  Level Estimated
Fri 07:53:00 AM 51.3152 -36.1427 272° West  Level Estimated
Fri 07:54:00 AM 51.3185 -36.3422 272° West  Level Estimated
Fri 07:55:00 AM 51.3215 -36.5417 271° West  Level Estimated
Fri 07:56:00 AM 51.3242 -36.7412 271° West  Level Estimated
Fri 07:57:00 AM 51.3265 -36.9408 271° West  Level Estimated
Fri 07:58:00 AM 51.3285 -37.1403 271° West  Level Estimated
Fri 07:59:00 AM 51.3302 -37.3399 271° West  Level Estimated
Fri 08:00:00 AM 51.3315 -37.5395 271° West  Level Estimated
Fri 08:01:00 AM 51.3324 -37.7391 271° West  Level Estimated
Fri 08:02:00 AM 51.3331 -37.9387 270° West  Level Estimated
Fri 08:03:00 AM 51.3334 -38.1384 270° West  Level Estimated
Fri 08:04:00 AM 51.3333 -38.3380 270° West  Level Estimated
Fri 08:05:00 AM 51.3329 -38.5376 270° West  Level Estimated
Fri 08:06:00 AM 51.3322 -38.7372 270° West  Level Estimated
Fri 08:07:00 AM 51.3311 -38.9368 270° West  Level Estimated
Fri 08:08:00 AM 51.3297 -39.1364 269° West  Level Estimated
Fri 08:09:00 AM 51.3280 -39.3360 269° West  Level Estimated
Fri 08:10:00 AM 51.3259 -39.5355 269° West  Level Estimated
Fri 08:11:00 AM 51.3235 -39.7351 269° West  Level Estimated
Fri 08:12:00 AM 51.3207 -39.9346 269° West  Level Estimated
Fri 08:13:00 AM 51.3176 -40.1341 269° West  Level Estimated
Fri 08:14:00 AM 51.3142 -40.3336 268° West  Level Estimated
Fri 08:15:00 AM 51.3104 -40.5330 268° West  Level Estimated
Fri 08:16:00 AM 51.3063 -40.7324 268° West  Level Estimated
Fri 08:17:00 AM 51.3018 -40.9318 268° West  Level Estimated
Fri 08:18:00 AM 51.2970 -41.1311 268° West  Level Estimated
Fri 08:19:00 AM 51.2919 -41.3303 268° West  Level Estimated
Fri 08:20:00 AM 51.2864 -41.5296 268° West  Level Estimated
Fri 08:21:00 AM 51.2806 -41.7288 267° West  Level Estimated
Fri 08:22:00 AM 51.2744 -41.9279 267° West  Level Estimated
Fri 08:23:00 AM 51.2680 -42.1270 267° West  Level Estimated
Fri 08:24:00 AM 51.2612 -42.3260 267° West  Level Estimated
Fri 08:25:00 AM 51.2540 -42.5249 267° West  Level Estimated
Fri 08:26:00 AM 51.2465 -42.7239 267° West  Level Estimated
Fri 08:27:00 AM 51.2387 -42.9227 266° West  Level Estimated
Fri 08:28:00 AM 51.2305 -43.1214 266° West  Level Estimated
Fri 08:29:00 AM 51.2220 -43.3201 266° West  Level Estimated
Fri 08:30:00 AM 51.2131 -43.5187 266° West  Level Estimated
Fri 08:31:00 AM 51.2040 -43.7173 266° West  Level Estimated
Fri 08:32:00 AM 51.1945 -43.9157 266° West  Level Estimated
Fri 08:33:00 AM 51.1846 -44.1141 266° West  Level Estimated
Fri 08:34:00 AM 51.1744 -44.3124 265° West  Level Estimated
Fri 08:35:00 AM 51.1639 -44.5106 265° West  Level Estimated
Fri 08:36:00 AM 51.1530 -44.7087 265° West  Level Estimated
Fri 08:37:00 AM 51.1419 -44.9067 265° West  Level Estimated
Fri 08:38:00 AM 51.1303 -45.1046 265° West  Level Estimated
Fri 08:39:00 AM 51.1185 -45.3024 265° West  Level Estimated
Fri 08:40:00 AM 51.1063 -45.5001 264° West  Level Estimated
Fri 08:41:00 AM 51.0938 -45.6978 264° West  Level Estimated
Fri 08:42:00 AM 51.0809 -45.8952 264° West  Level Estimated
Fri 08:43:00 AM 51.0677 -46.0926 264° West  Level Estimated
Fri 08:44:00 AM 51.0542 -46.2899 264° West  Level Estimated
Fri 08:45:00 AM 51.0404 -46.4871 264° West  Level Estimated
Fri 08:46:00 AM 51.0262 -46.6841 264° West  Level Estimated
Fri 08:47:00 AM 51.0117 -46.8810 263° West  Level Estimated
Fri 08:48:00 AM 50.9968 -47.0778 263° West  Level Estimated
Fri 08:49:00 AM 50.9816 -47.2745 263° West  Level Estimated
Fri 08:50:00 AM 50.9661 -47.4710 263° West  Level Estimated
Fri 08:51:00 AM 50.9503 -47.6674 263° West  Level Estimated
Fri 08:52:00 AM 50.9341 -47.8637 263° West  Level Estimated
Fri 08:53:00 AM 50.9176 -48.0598 262° West  Level Estimated
Fri 08:54:00 AM 50.9008 -48.2558 262° West  Level Estimated
Fri 08:55:00 AM 50.8836 -48.4516 262° West  Level Estimated
Fri 08:56:00 AM 50.8662 -48.6473 262° West  Level Estimated
Fri 08:57:00 AM 50.8484 -48.8429 262° West  Level Estimated
Fri 08:58:00 AM 50.8302 -49.0383 262° West  Level Estimated
Fri 08:58:27 AM 47.1250 -49.5010 262° West 491 565 34,000  Level FlightAware ADS-B
Fri 08:59:00 AM 50.8118 -49.2335 262° West  Level Estimated
Fri 08:59:12 AM 47.0900 -49.6430 250° West 488 562 34,000  Level FlightAware ADS-B
Fri 08:59:52 AM 47.0580 -49.7680 249° West 490 564 34,000  Level FlightAware ADS-B
Fri 09:00:47 AM 47.0220 -49.9150 250° West 490 564 34,000  Level FlightAware ADS-B
Fri 09:01:27 AM 46.9950 -50.0210 250° West 490 564 34,000  Level FlightAware ADS-B
Fri 09:01:33 AM 46.9667 -50.0167 258° West 490 564 34,000  Level Gander Center
Fri 09:02:07 AM 46.9690 -50.1270 250° West 490 564 34,000  Level FlightAware ADS-B
Fri 09:02:33 AM 46.9500 -50.2333 264° West 490 564 34,000  Level Gander Center
Fri 09:02:42 AM 46.9640 -50.3040 268° West 34,000  Level FlightAware ADS-B
Fri 09:03:33 AM 46.9167 -50.4333 256° West 490 564 34,000  Level Gander Center
Fri 09:05:00 AM 46.9060 -50.7228 259° West  Level FlightAware Approximate
Fri 09:06:00 AM 46.8803 -50.9046 258° West  Level FlightAware Approximate
Fri 09:09:27 AM 46.7160 -51.5830 256° West 476 548 34,000  Level FlightAware ADS-B
Fri 09:10:07 AM 46.6900 -51.7080 253° West 477 549 34,000  Level FlightAware ADS-B
Fri 09:10:47 AM 46.6650 -51.8300 253° West 479 551 34,000  Level FlightAware ADS-B
Fri 09:11:32 AM 46.6350 -51.9720 253° West 477 549 34,000  Level FlightAware ADS-B
Fri 09:12:12 AM 46.6090 -52.0920 253° West 478 550 34,000  Level FlightAware ADS-B
Fri 09:12:57 AM 46.5800 -52.2290 253° West 476 548 34,000  Level FlightAware ADS-B
Fri 09:13:37 AM 46.5550 -52.3500 253° West 476 548 34,000  Level FlightAware ADS-B
Fri 09:14:12 AM 46.5320 -52.4540 252° West 474 545 34,000  Level FlightAware ADS-B
Fri 09:15:02 AM 46.4980 -52.6110 253° West 475 547 34,000  Level FlightAware ADS-B
Fri 09:15:42 AM 46.4720 -52.7330 253° West 475 547 34,000  Level FlightAware ADS-B
Fri 09:16:32 AM 46.4420 -52.8690 252° West 475 547 34,000  Level FlightAware ADS-B
Fri 09:17:22 AM 46.4050 -53.0340 252° West 468 539 34,000  Level FlightAware ADS-B
Fri 09:17:57 AM 46.3840 -53.1300 252° West 467 537 34,000  Level FlightAware ADS-B
Fri 09:18:47 AM 46.3500 -53.2820 252° West 464 534 34,000  Level FlightAware ADS-B
Fri 09:19:27 AM 46.3240 -53.3990 252° West 463 533 34,000  Level FlightAware ADS-B
Fri 09:20:07 AM 46.2970 -53.5190 252° West 462 532 34,000  Level FlightAware ADS-B
Fri 09:20:42 AM 46.2750 -53.6170 252° West 464 534 34,000  Level FlightAware ADS-B
Fri 09:21:32 AM 46.2400 -53.7690 252° West 465 535 34,000  Level FlightAware ADS-B
Fri 09:22:12 AM 46.2120 -53.8890 251° West 464 534 34,000  Level FlightAware ADS-B
Fri 09:22:57 AM 46.1820 -54.0180 251° West 461 531 34,000  Level FlightAware ADS-B
Fri 09:23:37 AM 46.1550 -54.1340 251° West 459 528 34,000  Level FlightAware ADS-B
Fri 09:24:17 AM 46.1280 -54.2490 251° West 459 528 34,000  Level FlightAware ADS-B
Fri 09:25:02 AM 46.1010 -54.3660 252° West 459 528 34,000  Level FlightAware ADS-B
Fri 09:25:42 AM 46.0770 -54.4640 251° West 459 528 34,000  Level FlightAware ADS-B
Fri 09:26:12 AM 46.0590 -54.5380 251° West 459 528 34,000  Level FlightAware ADS-B
Fri 09:26:52 AM 46.0360 -54.6360 251° West 459 528 34,000  Level FlightAware ADS-B
Fri 09:27:32 AM 46.0120 -54.7350 251° West 459 528 34,000  Level FlightAware ADS-B
Fri 09:28:22 AM 45.9830 -54.8570 251° West 459 528 34,000  Level FlightAware ADS-B
Fri 09:29:02 AM 45.9590 -54.9560 251° West 459 528 34,000  Level FlightAware ADS-B
Fri 09:29:42 AM 45.9360 -55.0540 251° West 459 528 34,000  Level FlightAware ADS-B
Fri 09:30:22 AM 45.9120 -55.1520 251° West 459 528 34,000  Level FlightAware ADS-B
Fri 09:31:12 AM 45.8830 -55.2740 251° West 459 528 34,000  Level FlightAware ADS-B
Fri 09:31:52 AM 45.8590 -55.3730 251° West 459 528 34,000  Level FlightAware ADS-B
Fri 09:32:32 AM 45.8360 -55.4710 251° West 459 528 34,000  Level FlightAware ADS-B
Fri 09:33:12 AM 45.8120 -55.5680 250° West 459 528 34,000  Level FlightAware ADS-B
Fri 09:33:52 AM 45.7890 -55.6660 251° West 459 528 34,000 577 Level FlightAware ADS-B
Fri 09:34:56 AM 45.6667 -56.0500 251° West 470 541 35,000 484 Climbing Moncton Center
Fri 09:35:56 AM 45.6167 -56.2500 250° West 460 529 35,000  Level Moncton Center
Fri 09:41:27 AM 45.3850 -57.2130 250° West 453 521 35,000  Level FlightAware ADS-B
Fri 09:42:07 AM 45.3550 -57.3270 250° West 451 519 35,000  Level FlightAware ADS-B
Fri 09:42:47 AM 45.3240 -57.4400 249° West 449 517 35,000  Level FlightAware ADS-B
Fri 09:43:32 AM 45.2900 -57.5670 249° West 448 516 35,000  Level FlightAware ADS-B
Fri 09:44:12 AM 45.2600 -57.6770 249° West 446 513 35,000  Level FlightAware ADS-B
Fri 09:44:57 AM 45.2280 -57.7960 249° West 445 512 35,000  Level FlightAware ADS-B
Fri 09:45:37 AM 45.1980 -57.9060 249° West 444 511 35,000  Level FlightAware ADS-B
Fri 09:46:17 AM 45.1690 -58.0110 249° West 444 511 35,000  Level FlightAware ADS-B
Fri 09:47:02 AM 45.1340 -58.1370 249° West 444 511 35,000  Level FlightAware ADS-B
Fri 09:47:42 AM 45.1040 -58.2450 249° West 444 511 35,000  Level FlightAware ADS-B
Fri 09:48:27 AM 45.0710 -58.3610 248° West 442 509 35,000  Level FlightAware ADS-B
Fri 09:49:07 AM 45.0410 -58.4690 249° West 441 507 35,000  Level FlightAware ADS-B
Fri 09:49:47 AM 45.0100 -58.5770 248° West 441 507 35,000  Level FlightAware ADS-B
Fri 09:50:32 AM 44.9760 -58.6980 248° West 441 507 35,000  Level FlightAware ADS-B
Fri 09:51:12 AM 44.9460 -58.8050 248° West 441 507 35,000  Level FlightAware ADS-B
Fri 09:51:57 AM 44.9120 -58.9230 248° West 442 509 35,000  Level FlightAware ADS-B
Fri 09:52:37 AM 44.8810 -59.0310 248° West 443 510 35,000  Level FlightAware ADS-B
Fri 09:53:17 AM 44.8500 -59.1370 248° West 443 510 35,000  Level FlightAware ADS-B
Fri 09:54:02 AM 44.8150 -59.2590 248° West 442 509 35,000  Level FlightAware ADS-B
Fri 09:54:42 AM 44.7840 -59.3650 248° West 440 506 35,000  Level FlightAware ADS-B
Fri 09:55:22 AM 44.7530 -59.4720 248° West 440 506 35,000  Level FlightAware ADS-B
Fri 09:56:07 AM 44.7180 -59.5890 247° West 438 504 35,000  Level FlightAware ADS-B
Fri 09:56:47 AM 44.6870 -59.6950 248° West 436 502 35,000  Level FlightAware ADS-B
Fri 09:57:32 AM 44.6530 -59.8090 247° West 434 499 35,000  Level FlightAware ADS-B
Fri 09:58:12 AM 44.6220 -59.9140 248° West 433 498 35,000  Level FlightAware ADS-B
Fri 09:58:52 AM 44.5910 -60.0160 247° West 434 499 35,000  Level FlightAware ADS-B
Fri 09:59:37 AM 44.5560 -60.1360 248° West 435 501 35,000  Level FlightAware ADS-B
Fri 10:00:17 AM 44.5240 -60.2400 247° West 436 502 35,000  Level FlightAware ADS-B
Fri 10:00:52 AM 44.4970 -60.3280 247° West 435 501 35,000  Level FlightAware ADS-B
Fri 10:01:42 AM 44.4610 -60.4480 247° West 435 501 35,000  Level FlightAware ADS-B
Fri 10:02:22 AM 44.4340 -60.5370 247° West 435 501 35,000  Level FlightAware ADS-B
Fri 10:03:02 AM 44.4080 -60.6250 248° West 435 501 35,000  Level FlightAware ADS-B
Fri 10:03:42 AM 44.3810 -60.7130 247° West 435 501 35,000  Level FlightAware ADS-B
Fri 10:04:32 AM 44.3470 -60.8230 247° West 435 501 35,000  Level FlightAware ADS-B
Fri 10:05:12 AM 44.3210 -60.9110 248° West 435 501 35,000  Level FlightAware ADS-B
Fri 10:05:52 AM 44.2940 -60.9990 247° West 435 501 35,000  Level FlightAware ADS-B
Fri 10:06:32 AM 44.2670 -61.0870 247° West 435 501 35,000  Level FlightAware ADS-B
Fri 10:07:12 AM 44.2400 -61.1750 247° West 435 501 35,000  Level FlightAware ADS-B
Fri 10:08:02 AM 44.2070 -61.2850 247° West 435 501 35,000  Level FlightAware ADS-B
Fri 10:08:32 AM 44.1870 -61.3510 247° West 435 501 35,000  Level FlightAware ADS-B
Fri 10:09:12 AM 44.1600 -61.4390 247° West 435 501 35,000  Level FlightAware ADS-B
Fri 10:09:52 AM 44.1330 -61.5260 247° West 435 501 35,000  Level FlightAware ADS-B
Fri 10:10:42 AM 44.1000 -61.6360 247° West 435 501 35,000  Level FlightAware ADS-B
Fri 10:11:33 AM 43.9833 -61.9333 247° West 430 495 35,000  Level Gander Center
Fri 10:11:56 AM 43.9667 -61.9833 245° Southwest 430 495 35,000  Level Moncton Center
Fri 10:12:56 AM 43.9167 -62.1500 247° West 430 495 35,000  Level Moncton Center
Fri 10:13:56 AM 43.8667 -62.2833 243° Southwest 430 495 35,000  Level Moncton Center
Fri 10:14:56 AM 43.8167 -62.4333 245° Southwest 420 483 35,000  Level Moncton Center
Fri 10:15:56 AM 43.7500 -62.6000 241° Southwest 420 483 35,000  Level Moncton Center
Fri 10:16:56 AM 43.7167 -62.7333 251° West 410 472 35,000  Level Moncton Center
Fri 10:17:56 AM 43.6667 -62.8667 243° Southwest 420 483 35,000  Level Moncton Center
Fri 10:18:56 AM 43.6333 -63.0167 253° West 420 483 35,000  Level Moncton Center
Fri 10:19:33 AM 43.5833 -63.1000 230° Southwest 420 483 35,000 100 Level Gander Center
Fri 10:19:56 AM 43.5833 -63.1500 270° West 420 483 35,100 723 Climbing Moncton Center
Fri 10:20:56 AM 43.5167 -63.3167 241° Southwest 420 483 36,000 450 Climbing Moncton Center
Fri 10:21:56 AM 43.4667 -63.4500 243° Southwest 420 483 36,000  Level Moncton Center
Fri 10:22:56 AM 43.4167 -63.6000 245° Southwest 410 472 36,000  Level Moncton Center
Fri 10:28:12 AM 43.1830 -64.3400 245° Southwest 412 474 36,000  Level FlightAware ADS-B
Fri 10:28:52 AM 43.1470 -64.4420 244° Southwest 414 476 36,000  Level FlightAware ADS-B
Fri 10:29:32 AM 43.1120 -64.5380 243° Southwest 415 478 36,000  Level FlightAware ADS-B
Fri 10:30:27 AM 43.0650 -64.6700 244° Southwest 412 474 36,000  Level FlightAware ADS-B
Fri 10:31:12 AM 43.0280 -64.7730 244° Southwest 411 473 36,000  Level FlightAware ADS-B
Fri 10:32:07 AM 42.9830 -64.9000 244° Southwest 409 471 36,000  Level FlightAware ADS-B
Fri 10:33:42 AM 42.9070 -65.1090 244° Southwest 409 471 36,000  Level FlightAware ADS-B
Fri 10:34:22 AM 42.8780 -65.1870 243° Southwest 409 471 36,000  Level FlightAware ADS-B
Fri 10:35:12 AM 42.8410 -65.2850 243° Southwest 409 471 36,000  Level FlightAware ADS-B
Fri 10:35:52 AM 42.8120 -65.3630 243° Southwest 409 471 36,000  Level FlightAware ADS-B
Fri 10:36:32 AM 42.7830 -65.4410 243° Southwest 409 471 36,000  Level FlightAware ADS-B
Fri 10:37:12 AM 42.7530 -65.5190 242° Southwest 409 471 36,000  Level FlightAware ADS-B
Fri 10:37:52 AM 42.7240 -65.5970 243° Southwest 409 471 36,000  Level FlightAware ADS-B
Fri 10:38:42 AM 42.6880 -65.6950 243° Southwest 409 471 36,000  Level FlightAware ADS-B
Fri 10:39:22 AM 42.6580 -65.7730 242° Southwest 409 471 36,000  Level FlightAware ADS-B
Fri 10:40:02 AM 42.6290 -65.8510 243° Southwest 409 471 36,000  Level FlightAware ADS-B
Fri 10:40:42 AM 42.6000 -65.9290 243° Southwest 409 471 36,000  Level FlightAware ADS-B
Fri 10:41:22 AM 42.5710 -66.0070 243° Southwest 409 471 36,000  Level FlightAware ADS-B
Fri 10:42:12 AM 42.5340 -66.1040 243° Southwest 409 471 36,000  Level FlightAware ADS-B
Fri 10:42:52 AM 42.5050 -66.1820 243° Southwest 409 471 36,000  Level FlightAware ADS-B
Fri 10:43:52 AM 42.4019 -66.4747 243° Southwest 409 471 36,000  Level Boston Center
Fri 10:44:52 AM 42.3506 -66.6089 243° Southwest 409 471 36,000 -50 Level Boston Center
Fri 10:45:52 AM 42.2969 -66.7461 242° Southwest 409 471 35,900  Descending Boston Center
Fri 10:51:47 AM 42.1100 -67.6110 242° Southwest 428 493 36,000 15 Climbing FlightAware ADS-B
Fri 10:52:27 AM 42.1040 -67.7100 265° West 428 493 36,000  Level FlightAware ADS-B
Fri 10:53:07 AM 42.0980 -67.8000 265° West 428 493 36,000  Level FlightAware ADS-B
Fri 10:53:47 AM 42.0930 -67.8910 266° West 428 493 36,000  Level FlightAware ADS-B
Fri 10:54:27 AM 42.0870 -67.9810 265° West 428 493 36,000  Level FlightAware ADS-B
Fri 10:55:07 AM 42.0810 -68.0710 265° West 428 493 36,000  Level FlightAware ADS-B
Fri 10:55:57 AM 42.0740 -68.1840 265° West 428 493 36,000  Level FlightAware ADS-B
Fri 10:56:37 AM 42.0680 -68.2750 265° West 428 493 36,000  Level FlightAware ADS-B
Fri 10:57:17 AM 42.0620 -68.3650 265° West 428 493 36,000  Level FlightAware ADS-B
Fri 10:57:57 AM 42.1360 -68.6270 291° West 446 513 36,000  Level FlightAware ADS-B
Fri 10:58:47 AM 42.1390 -68.7680 272° West 445 512 36,000  Level FlightAware ADS-B
Fri 10:59:27 AM 42.1420 -68.8770 272° West 445 512 36,000  Level FlightAware ADS-B
Fri 11:00:12 AM 42.1440 -68.9950 271° West 447 514 36,000  Level FlightAware ADS-B
Fri 11:00:52 AM 42.1460 -69.1050 271° West 447 514 36,000  Level FlightAware ADS-B
Fri 11:01:37 AM 42.1490 -69.2360 272° West 448 516 36,000  Level FlightAware ADS-B
Fri 11:02:17 AM 42.1510 -69.3450 271° West 447 514 36,000  Level FlightAware ADS-B
Fri 11:02:57 AM 42.1530 -69.4590 271° West 447 514 36,000  Level FlightAware ADS-B
Fri 11:03:37 AM 42.1550 -69.5720 271° West 448 516 36,000  Level FlightAware ADS-B
Fri 11:04:22 AM 42.1570 -69.6980 271° West 450 518 36,000  Level FlightAware ADS-B
Fri 11:05:02 AM 42.1580 -69.8100 271° West 450 518 36,000  Level FlightAware ADS-B
Fri 11:05:42 AM 42.1600 -69.9150 272° West 449 517 36,000  Level FlightAware ADS-B
Fri 11:06:27 AM 42.1610 -70.0330 271° West 452 520 36,000  Level FlightAware ADS-B
Fri 11:07:12 AM 42.1630 -70.1710 271° West 455 524 36,000  Level FlightAware ADS-B
Fri 11:07:52 AM 42.1640 -70.2800 271° West 457 526 36,000  Level FlightAware ADS-B
Fri 11:08:37 AM 42.1650 -70.4080 271° West 452 520 36,000  Level FlightAware ADS-B
Fri 11:09:17 AM 42.1660 -70.5210 271° West 449 517 36,000  Level FlightAware ADS-B
Fri 11:09:57 AM 42.1670 -70.6320 271° West 449 517 36,000  Level FlightAware ADS-B
Fri 11:10:42 AM 42.1680 -70.7580 271° West 444 511 36,000  Level FlightAware ADS-B
Fri 11:11:22 AM 42.1680 -70.8710 270° West 442 509 36,000  Level FlightAware ADS-B
Fri 11:12:07 AM 42.1690 -70.9940 271° West 441 507 36,000  Level FlightAware ADS-B
Fri 11:12:47 AM 42.1690 -71.1110 270° West 444 511 36,000  Level FlightAware ADS-B
Fri 11:13:27 AM 42.1690 -71.2180 270° West 449 517 36,000  Level FlightAware ADS-B
Fri 11:14:07 AM 42.1700 -71.3290 271° West 451 519 36,000  Level FlightAware ADS-B
Fri 11:14:42 AM 42.1700 -71.4330 270° West 447 514 36,000  Level FlightAware ADS-B
Fri 11:15:37 AM 42.1690 -71.5850 270° West 445 512 36,000  Level FlightAware ADS-B
Fri 11:16:17 AM 42.1690 -71.6950 270° West 447 514 36,000  Level FlightAware ADS-B
Fri 11:16:57 AM 42.1690 -71.8090 270° West 448 516 36,000  Level FlightAware ADS-B
Fri 11:17:37 AM 42.1680 -71.9130 269° West 447 514 36,000  Level FlightAware ADS-B
Fri 11:18:22 AM 42.1680 -72.0310 270° West 448 516 36,000  Level FlightAware ADS-B
Fri 11:19:17 AM 42.1670 -72.1890 270° West 447 514 36,000  Level FlightAware ADS-B
Fri 11:20:02 AM 42.1660 -72.3100 269° West 444 511 36,000  Level FlightAware ADS-B
Fri 11:20:42 AM 42.1650 -72.4260 269° West 443 510 36,000  Level FlightAware ADS-B
Fri 11:21:22 AM 42.1640 -72.5390 269° West 444 511 36,000  Level FlightAware ADS-B
Fri 11:22:07 AM 42.1620 -72.6670 269° West 447 514 36,000  Level FlightAware ADS-B
Fri 11:22:37 AM 42.1420 -72.7460 251° West 449 517 36,000  Level FlightAware ADS-B
Fri 11:23:17 AM 42.0930 -72.8360 234° Southwest 453 521 36,000  Level FlightAware ADS-B
Fri 11:23:54 AM 42.0430 -72.9202 231° Southwest 453 521 36,000  Level FlightAware ADS-B
Fri 11:24:25 AM 42.0019 -72.9889 231° Southwest 453 521 36,000  Level FlightAware ADS-B
Fri 11:24:58 AM 41.9574 -73.0580 229° Southwest 455 524 36,000  Level FlightAware ADS-B
Fri 11:25:31 AM 41.9114 -73.1288 229° Southwest 458 527 36,000  Level FlightAware ADS-B
Fri 11:26:01 AM 41.8690 -73.1948 229° Southwest 458 527 36,000  Level FlightAware ADS-B
Fri 11:26:35 AM 41.8230 -73.2668 229° Southwest 456 525 36,000  Level FlightAware ADS-B
Fri 11:27:05 AM 41.7812 -73.3322 229° Southwest 456 525 36,000  Level FlightAware ADS-B
Fri 11:27:41 AM 41.7329 -73.4071 229° Southwest 457 526 36,000  Level FlightAware ADS-B
Fri 11:28:16 AM 41.6845 -73.4824 229° Southwest 459 528 36,000  Level FlightAware ADS-B
Fri 11:28:55 AM 41.6301 -73.5665 229° Southwest 459 528 36,000  Level FlightAware ADS-B
Fri 11:29:27 AM 41.5857 -73.6347 229° Southwest 455 524 36,000  Level FlightAware ADS-B
Fri 11:29:59 AM 41.5424 -73.7015 229° Southwest 455 524 36,000  Level FlightAware ADS-B
Fri 11:30:30 AM 41.4985 -73.7687 229° Southwest 456 525 36,000  Level FlightAware ADS-B
Fri 11:31:01 AM 41.4564 -73.8330 229° Southwest 456 525 36,000  Level FlightAware ADS-B
Fri 11:31:32 AM 41.4132 -73.8990 229° Southwest 457 526 36,000  Level FlightAware ADS-B
Fri 11:31:37 AM 41.4061 -73.9098 229° Southwest 457 526 36,000  Level FlightAware ADS-B
Fri 11:32:07 AM 41.3649 -73.9725 229° Southwest 459 528 36,000  Level FlightAware ADS-B
Fri 11:32:13 AM 41.3565 -73.9852 229° Southwest 459 528 36,000  Level FlightAware ADS-B
Fri 11:32:43 AM 41.3140 -74.0498 229° Southwest 460 529 36,000  Level FlightAware ADS-B
Fri 11:32:44 AM 41.3121 -74.0529 231° Southwest 461 531 36,000  Level FlightAware ADS-B
Fri 11:33:13 AM 41.2718 -74.1136 229° Southwest 460 529 36,000  Level FlightAware ADS-B
Fri 11:33:16 AM 41.2676 -74.1200 229° Southwest 460 529 36,000  Level FlightAware ADS-B
Fri 11:33:43 AM 41.2299 -74.1779 229° Southwest 459 528 36,000  Level FlightAware ADS-B
Fri 11:34:01 AM 41.2073 -74.2178 233° Southwest 456 525 36,000  Level FlightAware ADS-B
Fri 11:34:14 AM 41.1925 -74.2460 235° Southwest 454 522 36,000  Level FlightAware ADS-B
Fri 11:34:35 AM 41.1672 -74.2954 236° Southwest 453 521 36,000  Level FlightAware ADS-B
Fri 11:34:44 AM 41.1566 -74.3161 236° Southwest 453 521 36,000  Level FlightAware ADS-B
Fri 11:35:16 AM 41.1194 -74.3897 236° Southwest 454 522 36,000  Level FlightAware ADS-B
Fri 11:35:25 AM 41.1087 -74.4107 236° Southwest 454 522 36,000  Level FlightAware ADS-B
Fri 11:35:46 AM 41.0838 -74.4595 236° Southwest 455 524 36,000  Level FlightAware ADS-B
Fri 11:36:17 AM 41.0479 -74.5301 236° Southwest 456 525 36,000  Level FlightAware ADS-B
Fri 11:36:47 AM 41.0119 -74.6002 236° Southwest 456 525 36,000  Level FlightAware ADS-B
Fri 11:37:17 AM 40.9762 -74.6695 236° Southwest 456 525 36,000  Level FlightAware ADS-B
Fri 11:37:48 AM 40.9405 -74.7389 236° Southwest 456 525 36,000  Level FlightAware ADS-B
Fri 11:38:21 AM 40.9012 -74.8149 236° Southwest 455 524 36,000  Level FlightAware ADS-B
Fri 11:38:51 AM 40.8652 -74.8845 236° Southwest 454 522 36,000  Level FlightAware ADS-B
Fri 11:39:21 AM 40.8293 -74.9537 236° Southwest 453 521 36,000  Level FlightAware ADS-B
Fri 11:39:53 AM 40.7919 -75.0258 236° Southwest 452 520 36,000  Level FlightAware ADS-B
Fri 11:40:24 AM 40.7549 -75.0966 235° Southwest 451 519 36,000  Level FlightAware ADS-B
Fri 11:40:55 AM 40.7185 -75.1664 235° Southwest 451 519 36,000  Level FlightAware ADS-B
Fri 11:41:26 AM 40.6826 -75.2352 235° Southwest 449 517 36,000  Level FlightAware ADS-B
Fri 11:41:56 AM 40.6465 -75.3041 235° Southwest 449 517 36,000  Level FlightAware ADS-B
Fri 11:42:27 AM 40.6111 -75.3715 235° Southwest 447 514 36,000  Level FlightAware ADS-B
Fri 11:42:57 AM 40.5760 -75.4381 235° Southwest 446 513 36,000  Level FlightAware ADS-B
Fri 11:43:27 AM 40.5404 -75.5055 235° Southwest 444 511 36,000  Level FlightAware ADS-B
Fri 11:43:58 AM 40.5046 -75.5734 235° Southwest 444 511 36,000  Level FlightAware ADS-B
Fri 11:44:28 AM 40.4693 -75.6399 235° Southwest 444 511 36,000  Level FlightAware ADS-B
Fri 11:44:59 AM 40.4324 -75.7092 235° Southwest 443 510 36,000  Level FlightAware ADS-B
Fri 11:45:30 AM 40.3960 -75.7774 235° Southwest 442 509 36,000  Level FlightAware ADS-B
Fri 11:46:01 AM 40.3602 -75.8448 235° Southwest 442 509 36,000  Level FlightAware ADS-B
Fri 11:46:31 AM 40.3247 -75.9112 235° Southwest 442 509 36,000  Level FlightAware ADS-B
Fri 11:47:02 AM 40.2891 -75.9779 235° Southwest 444 511 36,000  Level FlightAware ADS-B
Fri 11:47:33 AM 40.2523 -76.0464 235° Southwest 444 511 36,000  Level FlightAware ADS-B
Fri 11:48:03 AM 40.2166 -76.1125 235° Southwest 444 511 36,000  Level FlightAware ADS-B
Fri 11:48:36 AM 40.1779 -76.1843 235° Southwest 446 513 36,000  Level FlightAware ADS-B
Fri 11:49:25 AM 40.1194 -76.2923 235° Southwest 447 514 36,000  Level FlightAware ADS-B
Fri 11:49:45 AM 40.0967 -76.3373 237° Southwest 442 509 36,000  Level FlightAware ADS-B
Fri 11:50:17 AM 40.0645 -76.4102 240° Southwest 441 507 36,000  Level FlightAware ADS-B
Fri 11:50:52 AM 40.0282 -76.4914 240° Southwest 439 505 36,000  Level FlightAware ADS-B
Fri 11:51:27 AM 39.9915 -76.5713 239° Southwest 438 504 36,000  Level FlightAware ADS-B
Fri 11:51:58 AM 39.9592 -76.6403 239° Southwest 437 503 36,000  Level FlightAware ADS-B
Fri 11:52:31 AM 39.9242 -76.7148 239° Southwest 437 503 36,000  Level FlightAware ADS-B
Fri 11:53:02 AM 39.8919 -76.7837 239° Southwest 438 504 36,000  Level FlightAware ADS-B
Fri 11:53:32 AM 39.8601 -76.8515 239° Southwest 438 504 36,000  Level FlightAware ADS-B
Fri 11:54:11 AM 39.8192 -76.9384 239° Southwest 436 502 36,000  Level FlightAware ADS-B
Fri 11:54:44 AM 39.7853 -77.0105 239° Southwest 437 503 36,000  Level FlightAware ADS-B
Fri 11:55:16 AM 39.7513 -77.0826 238° Southwest 437 503 36,000  Level FlightAware ADS-B
Fri 11:55:48 AM 39.7175 -77.1542 238° Southwest 436 502 36,000  Level FlightAware ADS-B
Fri 11:56:22 AM 39.6812 -77.2307 238° Southwest 438 504 36,000  Level FlightAware ADS-B
Fri 11:56:57 AM 39.6446 -77.3080 238° Southwest 436 502 36,000  Level FlightAware ADS-B
Fri 11:57:28 AM 39.6115 -77.3775 238° Southwest 434 499 36,000  Level FlightAware ADS-B
Fri 11:57:58 AM 39.5798 -77.4442 238° Southwest 436 502 36,000  Level FlightAware ADS-B
Fri 11:58:30 AM 39.5461 -77.5146 238° Southwest 437 503 36,000  Level FlightAware ADS-B
Fri 11:59:02 AM 39.5123 -77.5851 238° Southwest 438 504 36,000  Level FlightAware ADS-B
Fri 11:59:32 AM 39.4799 -77.6528 238° Southwest 439 505 36,000  Level FlightAware ADS-B
Fri 12:00:04 PM 39.4464 -77.7224 238° Southwest 438 504 36,000  Level FlightAware ADS-B
Fri 12:00:35 PM 39.4134 -77.7908 238° Southwest 439 505 36,000  Level FlightAware ADS-B
Fri 12:01:07 PM 39.3801 -77.8636 239° Southwest 438 504 36,000  Level FlightAware ADS-B
Fri 12:02:02 PM 39.3330 -77.9820 243° Southwest 434 499 36,000  Level FlightAware ADS-B
Fri 12:02:47 PM 39.3080 -78.0890 253° West 425 489 36,000  Level FlightAware ADS-B
Fri 12:03:34 PM 39.2789 -78.2148 253° West 435 501 36,000  Level FlightAware ADS-B
Fri 12:04:12 PM 39.2580 -78.2980 252° West 427 491 36,000  Level FlightAware ADS-B
Fri 12:04:57 PM 39.2290 -78.4090 251° West 427 491 36,000  Level FlightAware ADS-B
Fri 12:05:37 PM 39.2040 -78.5060 252° West 429 494 36,000  Level FlightAware ADS-B
Fri 12:06:17 PM 39.1800 -78.6020 252° West 427 491 36,000  Level FlightAware ADS-B
Fri 12:07:02 PM 39.1520 -78.7100 252° West 426 490 36,000  Level FlightAware ADS-B
Fri 12:07:42 PM 39.1280 -78.8060 252° West 424 488 36,000  Level FlightAware ADS-B
Fri 12:08:27 PM 39.1000 -78.9150 252° West 424 488 36,000  Level FlightAware ADS-B
Fri 12:09:07 PM 39.0770 -79.0050 252° West 423 487 36,000  Level FlightAware ADS-B
Fri 12:09:52 PM 39.0500 -79.1140 252° West 425 489 36,000  Level FlightAware ADS-B
Fri 12:10:32 PM 39.0250 -79.2130 252° West 425 489 36,000  Level FlightAware ADS-B
Fri 12:11:12 PM 39.0010 -79.3090 252° West 425 489 36,000  Level FlightAware ADS-B
Fri 12:11:57 PM 38.9740 -79.4150 252° West 426 490 36,000  Level FlightAware ADS-B
Fri 12:12:37 PM 38.9490 -79.5130 252° West 427 491 36,000  Level FlightAware ADS-B
Fri 12:13:17 PM 38.9270 -79.6010 252° West 426 490 36,000  Level FlightAware ADS-B
Fri 12:14:02 PM 38.9000 -79.7060 252° West 427 491 36,000  Level FlightAware ADS-B
Fri 12:14:42 PM 38.8740 -79.8090 252° West 427 491 36,000  Level FlightAware ADS-B
Fri 12:15:27 PM 38.8450 -79.9220 252° West 425 489 36,000  Level FlightAware ADS-B
Fri 12:16:07 PM 38.8230 -80.0080 252° West 423 487 36,000  Level FlightAware ADS-B
Fri 12:16:47 PM 38.7940 -80.1170 251° West 420 483 36,000  Level FlightAware ADS-B
Fri 12:17:32 PM 38.7670 -80.2200 251° West 418 481 36,000  Level FlightAware ADS-B
Fri 12:18:12 PM 38.7430 -80.3120 252° West 416 479 36,000  Level FlightAware ADS-B
Fri 12:18:57 PM 38.7150 -80.4210 252° West 416 479 36,000  Level FlightAware ADS-B
Fri 12:19:37 PM 38.6900 -80.5130 251° West 414 476 36,000  Level FlightAware ADS-B
Fri 12:20:12 PM 38.6710 -80.5850 251° West 414 476 36,000  Level FlightAware ADS-B
Fri 12:20:57 PM 38.6450 -80.6820 251° West 414 476 36,000  Level FlightAware ADS-B
Fri 12:21:42 PM 38.6140 -80.8000 251° West 418 481 36,000  Level FlightAware ADS-B
Fri 12:22:22 PM 38.5890 -80.8930 251° West 416 479 36,000  Level FlightAware ADS-B
Fri 12:23:07 PM 38.5600 -81.0010 251° West 416 479 36,000  Level FlightAware ADS-B
Fri 12:23:47 PM 38.5350 -81.0950 251° West 414 476 36,000  Level FlightAware ADS-B
Fri 12:24:32 PM 38.5080 -81.1950 251° West 410 472 36,000  Level FlightAware ADS-B
Fri 12:25:12 PM 38.4830 -81.2840 250° West 407 468 36,000  Level FlightAware ADS-B
Fri 12:25:57 PM 38.4540 -81.3900 251° West 407 468 36,000  Level FlightAware ADS-B
Fri 12:26:37 PM 38.4300 -81.4800 251° West 406 467 36,000  Level FlightAware ADS-B
Fri 12:27:17 PM 38.4050 -81.5690 250° West 401 461 36,000  Level FlightAware ADS-B
Fri 12:28:02 PM 38.3780 -81.6670 251° West 396 456 36,000  Level FlightAware ADS-B
Fri 12:28:52 PM 38.3500 -81.7680 251° West 394 453 36,000  Level FlightAware ADS-B
Fri 12:29:37 PM 38.3190 -81.8770 250° West 393 452 36,000  Level FlightAware ADS-B
Fri 12:30:17 PM 38.2960 -81.9640 251° West 394 453 36,000  Level FlightAware ADS-B
Fri 12:31:02 PM 38.2690 -82.0590 250° West 396 456 36,000  Level FlightAware ADS-B
Fri 12:31:42 PM 38.2430 -82.1490 250° West 399 459 36,000  Level FlightAware ADS-B
Fri 12:32:27 PM 38.2150 -82.2510 251° West 402 463 36,000  Level FlightAware ADS-B
Fri 12:33:07 PM 38.1900 -82.3370 250° West 397 457 36,000  Level FlightAware ADS-B
Fri 12:33:52 PM 38.1620 -82.4360 250° West 394 453 36,000  Level FlightAware ADS-B
Fri 12:34:08 PM 38.1505 -82.4751 250° West 393 452 36,000  Level FlightAware ADS-B
Fri 12:34:39 PM 38.1315 -82.5417 250° West 393 452 36,000  Level FlightAware ADS-B
Fri 12:35:09 PM 38.1128 -82.6069 250° West 394 453 36,000  Level FlightAware ADS-B
Fri 12:35:41 PM 38.0928 -82.6761 250° West 393 452 36,000  Level FlightAware ADS-B
Fri 12:36:13 PM 38.0729 -82.7450 250° West 393 452 36,000  Level FlightAware ADS-B
Fri 12:36:49 PM 38.0508 -82.8214 250° West 394 453 36,000  Level FlightAware ADS-B
Fri 12:37:27 PM 38.0280 -82.8990 250° West 394 453 36,000  Level FlightAware ADS-B
Fri 12:38:12 PM 38.0030 -82.9830 249° West 394 453 36,000  Level FlightAware ADS-B
Fri 12:38:52 PM 37.9810 -83.0570 249° West 394 453 36,000  Level FlightAware ADS-B
Fri 12:39:42 PM 37.9530 -83.1480 249° West 394 453 36,000  Level FlightAware ADS-B
Fri 12:40:22 PM 37.9310 -83.2220 249° West 394 453 36,000  Level FlightAware ADS-B
Fri 12:41:02 PM 37.9080 -83.2950 248° West 394 453 36,000  Level FlightAware ADS-B
Fri 12:41:42 PM 37.8860 -83.3680 249° West 394 453 36,000  Level FlightAware ADS-B
Fri 12:42:32 PM 37.8331 -83.5622 251° West 390 449 36,000  Level FlightAware ADS-B
Fri 12:43:05 PM 37.8116 -83.6339 249° West 389 448 36,000  Level FlightAware ADS-B
Fri 12:43:44 PM 37.7872 -83.7154 249° West 389 448 36,000  Level FlightAware ADS-B
Fri 12:44:14 PM 37.7682 -83.7791 249° West 389 448 36,000  Level FlightAware ADS-B
Fri 12:44:45 PM 37.7483 -83.8451 249° West 388 447 36,000  Level FlightAware ADS-B
Fri 12:45:16 PM 37.7286 -83.9105 249° West 388 447 36,000  Level FlightAware ADS-B
Fri 12:45:47 PM 37.7089 -83.9757 249° West 389 448 36,000  Level FlightAware ADS-B
Fri 12:46:19 PM 37.6880 -84.0448 249° West 390 449 36,000  Level FlightAware ADS-B
Fri 12:46:52 PM 37.6667 -84.1149 249° West 389 448 36,000  Level FlightAware ADS-B
Fri 12:47:23 PM 37.6473 -84.1789 249° West 388 447 36,000  Level FlightAware ADS-B
Fri 12:47:56 PM 37.6261 -84.2480 249° West 386 444 36,000  Level FlightAware ADS-B
Fri 12:48:26 PM 37.6066 -84.3112 249° West 386 444 36,000  Level FlightAware ADS-B
Fri 12:48:58 PM 37.5860 -84.3786 249° West 386 444 36,000  Level FlightAware ADS-B
Fri 12:49:28 PM 37.5664 -84.4418 249° West 386 444 36,000  Level FlightAware ADS-B
Fri 12:49:58 PM 37.5470 -84.5048 249° West 386 444 36,000  Level FlightAware ADS-B
Fri 12:50:30 PM 37.5266 -84.5707 249° West 386 444 36,000  Level FlightAware ADS-B
Fri 12:51:01 PM 37.5066 -84.6352 249° West 388 447 36,000  Level FlightAware ADS-B
Fri 12:51:32 PM 37.4862 -84.7009 249° West 389 448 36,000  Level FlightAware ADS-B
Fri 12:52:02 PM 37.4664 -84.7645 249° West 389 448 36,000  Level FlightAware ADS-B
Fri 12:52:32 PM 37.4467 -84.8283 249° West 389 448 36,000  Level FlightAware ADS-B
Fri 12:53:03 PM 37.4268 -84.8922 249° West 391 450 36,000  Level FlightAware ADS-B
Fri 12:53:33 PM 37.4069 -84.9562 249° West 393 452 36,000  Level FlightAware ADS-B
Fri 12:54:04 PM 37.3867 -85.0212 249° West 394 453 36,000  Level FlightAware ADS-B
Fri 12:54:35 PM 37.3656 -85.0881 248° West 396 456 36,000  Level FlightAware ADS-B
Fri 12:55:05 PM 37.3454 -85.1523 248° West 396 456 36,000  Level FlightAware ADS-B
Fri 12:55:36 PM 37.3248 -85.2173 248° West 396 456 36,000  Level FlightAware ADS-B
Fri 12:56:09 PM 37.3021 -85.2891 248° West 396 456 36,000  Level FlightAware ADS-B
Fri 12:56:40 PM 37.2815 -85.3541 248° West 396 456 36,000  Level FlightAware ADS-B
Fri 12:57:11 PM 37.2602 -85.4213 248° West 397 457 36,000  Level FlightAware ADS-B
Fri 12:57:44 PM 37.2377 -85.4916 248° West 399 459 36,000  Level FlightAware ADS-B
Fri 12:58:15 PM 37.2165 -85.5576 248° West 399 459 36,000  Level FlightAware ADS-B
Fri 12:59:12 PM 37.1640 -85.6640 238° Southwest 416 479 36,000  Level FlightAware ADS-B
Fri 01:00:02 PM 37.1010 -85.7500 227° Southwest 418 481 36,000  Level FlightAware ADS-B
Fri 01:00:37 PM 37.0560 -85.8180 230° Southwest 417 480 36,000  Level FlightAware ADS-B
Fri 01:01:12 PM 37.0030 -85.8790 223° Southwest 422 486 36,000  Level FlightAware ADS-B
Fri 01:02:07 PM 36.9290 -85.9770 227° Southwest 422 486 36,000  Level FlightAware ADS-B
Fri 01:02:42 PM 36.8810 -86.0420 227° Southwest 422 486 36,000  Level FlightAware ADS-B
Fri 01:03:27 PM 36.8200 -86.1210 226° Southwest 423 487 36,000  Level FlightAware ADS-B
Fri 01:04:12 PM 36.7610 -86.1990 227° Southwest 427 491 36,000  Level FlightAware ADS-B
Fri 01:04:53 PM 36.7013 -86.2781 227° Southwest 430 495 36,000  Level FlightAware ADS-B
Fri 01:05:26 PM 36.6562 -86.3373 226° Southwest 431 496 36,000  Level FlightAware ADS-B
Fri 01:06:00 PM 36.6091 -86.3990 226° Southwest 433 498 36,000  Level FlightAware ADS-B
Fri 01:06:31 PM 36.5670 -86.4540 226° Southwest 433 498 36,000  Level FlightAware ADS-B
Fri 01:07:02 PM 36.5260 -86.5070 226° Southwest 433 498 36,000  Level FlightAware ADS-B
Fri 01:07:10 PM 36.5135 -86.5237 227° Southwest 434 499 36,000  Level FlightAware ADS-B
Fri 01:07:42 PM 36.4710 -86.5800 227° Southwest 434 499 36,000  Level FlightAware ADS-B
Fri 01:08:01 PM 36.4427 -86.6160 226° Southwest 434 499 36,000  Level FlightAware ADS-B
Fri 01:08:44 PM 36.3821 -86.6948 226° Southwest 436 502 36,000  Level FlightAware ADS-B
Fri 01:09:47 PM 36.2980 -86.8030 226° Southwest 438 504 36,000  Level FlightAware ADS-B
Fri 01:09:52 PM 36.2875 -86.8171 227° Southwest 439 505 36,000  Level FlightAware ADS-B
Fri 01:10:32 PM 36.2330 -86.8870 226° Southwest 440 506 36,000  Level FlightAware ADS-B
Fri 01:11:12 PM 36.1770 -86.9600 226° Southwest 441 507 36,000  Level FlightAware ADS-B
Fri 01:11:52 PM 36.1200 -87.0320 226° Southwest 442 509 36,000  Level FlightAware ADS-B
Fri 01:12:37 PM 36.0570 -87.1140 226° Southwest 442 509 36,000  Level FlightAware ADS-B
Fri 01:13:17 PM 36.0010 -87.1850 226° Southwest 442 509 36,000  Level FlightAware ADS-B
Fri 01:13:57 PM 35.9430 -87.2590 226° Southwest 444 511 36,000  Level FlightAware ADS-B
Fri 01:14:42 PM 35.8780 -87.3410 226° Southwest 444 511 36,000  Level FlightAware ADS-B
Fri 01:15:22 PM 35.8220 -87.4140 227° Southwest 445 512 36,000  Level FlightAware ADS-B
Fri 01:16:07 PM 35.7580 -87.4940 225° Southwest 445 512 36,000  Level FlightAware ADS-B
Fri 01:16:47 PM 35.7010 -87.5670 226° Southwest 446 513 36,000  Level FlightAware ADS-B
Fri 01:17:27 PM 35.6450 -87.6370 225° Southwest 443 510 36,000  Level FlightAware ADS-B
Fri 01:18:12 PM 35.5780 -87.7210 226° Southwest 443 510 36,000  Level FlightAware ADS-B
Fri 01:18:52 PM 35.5200 -87.7940 226° Southwest 443 510 36,000  Level FlightAware ADS-B
Fri 01:19:32 PM 35.4700 -87.8560 225° Southwest 443 510 36,000  Level FlightAware ADS-B
Fri 01:20:07 PM 35.4140 -87.9260 226° Southwest 440 506 36,000  Level FlightAware ADS-B
Fri 01:20:57 PM 35.3430 -88.0150 226° Southwest 439 505 36,000  Level FlightAware ADS-B
Fri 01:21:37 PM 35.2910 -88.0790 225° Southwest 438 504 36,000  Level FlightAware ADS-B
Fri 01:22:17 PM 35.2420 -88.1380 225° Southwest 438 504 36,000  Level FlightAware ADS-B
Fri 01:23:07 PM 35.1810 -88.2130 225° Southwest 438 504 36,000  Level FlightAware ADS-B
Fri 01:23:47 PM 35.1330 -88.2730 226° Southwest 438 504 36,000  Level FlightAware ADS-B
Fri 01:24:27 PM 35.0840 -88.3320 225° Southwest 438 504 36,000  Level FlightAware ADS-B
Fri 01:25:07 PM 35.0350 -88.3920 225° Southwest 438 504 36,000  Level FlightAware ADS-B
Fri 01:25:47 PM 34.9870 -88.4510 225° Southwest 438 504 36,000  Level FlightAware ADS-B
Fri 01:26:27 PM 34.9380 -88.5110 225° Southwest 438 504 36,000  Level FlightAware ADS-B
Fri 01:27:17 PM 34.8770 -88.5850 225° Southwest 438 504 36,000  Level FlightAware ADS-B
Fri 01:27:47 PM 34.8400 -88.6290 224° Southwest 438 504 36,000  Level FlightAware ADS-B
Fri 01:28:37 PM 34.7790 -88.7040 225° Southwest 438 504 36,000  Level FlightAware ADS-B
Fri 01:29:17 PM 34.7310 -88.7630 225° Southwest 438 504 36,000  Level FlightAware ADS-B
Fri 01:29:57 PM 34.6820 -88.8220 225° Southwest 438 504 36,000  Level FlightAware ADS-B
Fri 01:30:37 PM 34.6330 -88.8810 225° Southwest 438 504 36,000 -625 Level FlightAware ADS-B
Fri 01:31:33 PM 34.4336 -89.1258 225° Southwest 451 519 35,000 -1,034 Descending Memphis Center
Fri 01:32:33 PM 34.3428 -89.2328 224° Southwest 451 519 34,000 -500 Descending Memphis Center
Fri 01:33:33 PM 34.2644 -89.3469 230° Southwest 451 519 34,000  Level Memphis Center
Fri 01:34:33 PM 34.2364 -89.4853 256° West 425 489 34,000  Level Memphis Center
Fri 01:35:33 PM 34.2144 -89.6414 260° West 430 495 34,000  Level Memphis Center
Fri 01:36:33 PM 34.1942 -89.7819 260° West 430 495 34,000  Level Memphis Center
Fri 01:37:33 PM 34.1739 -89.9228 260° West 430 495 34,000  Level Memphis Center
Fri 01:38:33 PM 34.1536 -90.0661 260° West 430 495 34,000  Level Memphis Center
Fri 01:39:33 PM 34.1350 -90.2092 261° West 430 495 34,000  Level Memphis Center
Fri 01:40:33 PM 34.1142 -90.3497 260° West 430 495 34,000  Level Memphis Center
Fri 01:41:33 PM 34.0933 -90.4950 260° West 430 495 34,000  Level Memphis Center
Fri 01:42:33 PM 34.0744 -90.6231 260° West 436 502 34,000  Level Memphis Center
Fri 01:43:33 PM 34.0531 -90.7633 260° West 431 496 34,000  Level Memphis Center
Fri 01:44:33 PM 33.9900 -90.8933 240° Southwest 436 502 34,000  Level Memphis Center
Fri 01:45:33 PM 33.9206 -91.0181 236° Southwest 448 516 34,000  Level Memphis Center
Fri 01:46:33 PM 33.8489 -91.1400 235° Southwest 454 522 34,000  Level Memphis Center
Fri 01:47:33 PM 33.7728 -91.2819 237° Southwest 453 521 34,000  Level Memphis Center
Fri 01:49:18 PM 33.6881 -91.5075 246° West 441 507 34,000  Level Fort Worth Center
Fri 01:50:18 PM 33.6439 -91.6378 248° West 434 499 34,000  Level Fort Worth Center
Fri 01:51:18 PM 33.6000 -91.7728 249° West 434 499 34,000  Level Fort Worth Center
Fri 01:52:18 PM 33.5581 -91.9075 250° West 434 499 34,000  Level Fort Worth Center
Fri 01:53:18 PM 33.5200 -92.0394 251° West 429 494 34,000  Level Fort Worth Center
Fri 01:54:18 PM 33.4861 -92.1761 253° West 429 494 34,000  Level Fort Worth Center
Fri 01:55:18 PM 33.4500 -92.3150 253° West 434 499 34,000  Level Fort Worth Center
Fri 01:56:18 PM 33.4431 -92.4547 267° West 428 493 34,000  Level Fort Worth Center
Fri 01:57:18 PM 33.4508 -92.5964 274° West 425 489 34,000  Level Fort Worth Center
Fri 01:58:18 PM 33.4581 -92.7328 274° West 425 489 34,000  Level Fort Worth Center
Fri 01:59:18 PM 33.4633 -92.8744 273° West 419 482 34,000  Level Fort Worth Center
Fri 02:00:18 PM 33.4703 -93.0136 273° West 419 482 34,000  Level Fort Worth Center
Fri 02:01:18 PM 33.4769 -93.1500 273° West 419 482 34,000  Level Fort Worth Center
Fri 02:02:18 PM 33.4839 -93.2917 273° West 419 482 34,000  Level Fort Worth Center
Fri 02:07:32 PM 33.5110 -94.0000 273° West 377 434 34,000  Level FlightAware ADS-B
Fri 02:08:17 PM 33.5150 -94.0920 273° West 376 433 34,000  Level FlightAware ADS-B
Fri 02:08:52 PM 33.5180 -94.1580 273° West 376 433 34,000  Level FlightAware ADS-B
Fri 02:09:32 PM 33.5210 -94.2290 273° West 376 433 34,000  Level FlightAware ADS-B
Fri 02:10:22 PM 33.5250 -94.3170 273° West 376 433 34,000  Level FlightAware ADS-B
Fri 02:11:02 PM 33.5280 -94.3880 273° West 376 433 34,000 -212 Level FlightAware ADS-B
Fri 02:11:47 PM 33.6200 -94.5040 314° West 416 479 33,700 -212 Descending FlightAware ADS-B
Fri 02:12:27 PM 33.6160 -94.5820 266° West 416 479 33,700  Level FlightAware ADS-B
Fri 02:13:07 PM 33.6110 -94.6600 266° West 416 479 33,700  Level FlightAware ADS-B
Fri 02:13:47 PM 33.6060 -94.7390 266° West 416 479 33,700 -3,075 Level FlightAware ADS-B
Fri 02:14:27 PM 33.6040 -94.8930 269° West 433 498 29,600 -3,388 Descending FlightAware ADS-B
Fri 02:15:12 PM 33.5990 -95.0000 267° West 429 494 28,900 -933 Descending FlightAware ADS-B
Fri 02:15:57 PM 33.5940 -95.1130 267° West 425 489 28,200 -988 Descending FlightAware ADS-B
Fri 02:16:37 PM 33.5850 -95.1970 263° West 420 483 27,500 -1,050 Descending FlightAware ADS-B
Fri 02:17:17 PM 33.5710 -95.2910 260° West 416 479 26,800 -988 Descending FlightAware ADS-B
Fri 02:18:02 PM 33.5550 -95.3950 260° West 411 473 26,100 -1,271 Descending FlightAware ADS-B
Fri 02:18:42 PM 33.5390 -95.4840 258° West 403 464 25,000 -1,906 Descending FlightAware ADS-B
Fri 02:19:27 PM 33.5210 -95.5770 257° West 386 444 23,400 -2,188 Descending FlightAware ADS-B
Fri 02:20:07 PM 33.5050 -95.6620 257° West 374 430 21,900 -2,100 Descending FlightAware ADS-B
Fri 02:20:47 PM 33.4900 -95.7390 257° West 362 417 20,600 -2,188 Descending FlightAware ADS-B
Fri 02:21:32 PM 33.4730 -95.8300 257° West 361 415 18,800 -2,400 Descending FlightAware ADS-B
Fri 02:22:12 PM 33.4590 -95.9050 257° West 364 419 17,200 -2,259 Descending FlightAware ADS-B
Fri 02:22:57 PM 33.4420 -95.9940 257° West 360 414 15,600 -2,118 Descending FlightAware ADS-B
Fri 02:23:37 PM 33.4270 -96.0710 257° West 357 411 14,200 -2,118 Descending FlightAware ADS-B
Fri 02:24:22 PM 33.4110 -96.1560 257° West 357 411 12,600 -1,906 Descending FlightAware ADS-B
Fri 02:25:02 PM 33.3970 -96.2320 258° West 344 396 11,500 -1,125 Descending FlightAware ADS-B
Fri 02:25:42 PM 33.3830 -96.3030 257° West 312 359 11,100 -494 Descending FlightAware ADS-B
Fri 02:26:27 PM 33.3690 -96.3750 257° West 272 313 10,800 -635 Descending FlightAware ADS-B
Fri 02:27:07 PM 33.3520 -96.4290 249° West 262 302 10,200 -1,029 Descending FlightAware ADS-B
Fri 02:27:37 PM 33.3400 -96.4710 251° West 257 296 9,600 -1,200 Descending FlightAware ADS-B
Fri 02:28:02 PM 33.3320 -96.5040 254° West 253 291 9,100 -1,200 Descending FlightAware ADS-B
Fri 02:28:32 PM 33.3210 -96.5450 252° West 249 287 8,500 -1,200 Descending FlightAware ADS-B
Fri 02:28:47 PM 33.3170 -96.5640 256° West 249 287 8,200 -1,050 Descending FlightAware ADS-B
Fri 02:29:12 PM 33.3080 -96.5980 252° West 245 282 7,800 -1,091 Descending FlightAware ADS-B
Fri 02:29:42 PM 33.2980 -96.6360 253° West 245 282 7,200 -1,200 Descending FlightAware ADS-B
Fri 02:30:07 PM 33.2900 -96.6670 253° West 247 284 6,700 -1,200 Descending FlightAware ADS-B
Fri 02:30:37 PM 33.2790 -96.7080 252° West 253 291 6,100 -800 Descending FlightAware ADS-B
Fri 02:31:07 PM 33.2690 -96.7480 253° West 249 287 5,900 -400 Descending FlightAware ADS-B
Fri 02:31:22 PM 33.2640 -96.7660 252° West 246 283 5,800 -171 Descending FlightAware ADS-B
Fri 02:31:42 PM 33.2610 -96.7920 262° West 246 283 5,800  Level FlightAware ADS-B
Fri 02:32:17 PM 33.2630 -96.8390 273° West 248 285 5,800  Level FlightAware ADS-B
Fri 02:32:32 PM 33.2640 -96.8580 274° West 239 275 5,800  Level FlightAware ADS-B
Fri 02:32:57 PM 33.2660 -96.8930 274° West 218 251 5,800  Level FlightAware ADS-B
Fri 02:33:27 PM 33.2680 -96.9270 274° West 214 246 5,800 -218 Level FlightAware ADS-B
Fri 02:33:52 PM 33.2690 -96.9560 272° West 210 242 5,600 -873 Descending FlightAware ADS-B
Fri 02:34:22 PM 33.2580 -96.9850 246° West 188 216 5,000 -873 Descending FlightAware ADS-B
Fri 02:34:47 PM 33.2430 -97.0040 227° Southwest 185 213 4,800 -300 Descending FlightAware ADS-B
Fri 02:35:02 PM 33.2330 -97.0120 214° Southwest 185 213 4,800  Level FlightAware ADS-B
Fri 02:35:32 PM 33.2110 -97.0240 205° Southwest 184 212 4,800  Level FlightAware ADS-B
Fri 02:35:42 PM 33.1990 -97.0250 184° South 190 219 4,800  Level FlightAware ADS-B
Fri 02:36:12 PM 33.1750 -97.0240 178° South 185 213 4,800  Level FlightAware ADS-B
Fri 02:36:27 PM 33.1610 -97.0250 183° South 167 192 4,800  Level FlightAware ADS-B
Fri 02:36:57 PM 33.1400 -97.0250 180° South 147 169 4,800 -436 Level FlightAware ADS-B
Fri 02:37:22 PM 33.1250 -97.0250 180° South 145 167 4,400 -873 Descending FlightAware ADS-B
Fri 02:37:52 PM 33.1030 -97.0250 180° South 146 168 4,000 -800 Descending FlightAware ADS-B
Fri 02:38:07 PM 33.0930 -97.0250 180° South 144 166 3,800 -686 Descending FlightAware ADS-B
Fri 02:38:27 PM 33.0810 -97.0250 180° South 142 163 3,600 -750 Descending FlightAware ADS-B
Fri 02:38:47 PM 33.0660 -97.0250 180° South 143 165 3,300 -840 Descending FlightAware ADS-B
Fri 02:39:17 PM 33.0480 -97.0250 180° South 144 166 2,900 -764 Descending FlightAware ADS-B
Fri 02:39:42 PM 33.0290 -97.0250 180° South 147 169 2,600 -764 Descending FlightAware ADS-B
Fri 02:40:12 PM 33.0080 -97.0250 180° South 154 177 2,200 -764 Descending FlightAware ADS-B
Fri 02:40:37 PM 32.9910 -97.0260 183° South 139 160 1,900 -764 Descending FlightAware ADS-B
Fri 02:41:07 PM 32.9740 -97.0260 180° South 137 158 1,500 -514 Descending FlightAware ADS-B
Fri 02:41:47 PM 32.9480 -97.0260 180° South 139 160 1,300 -300 Descending FlightAware ADS-B

Login

Don't have an account? Register now (free) for customized features, flight alerts, and more!